Time;durP1;ratioP1;P1;durP2;ratioP2;P2;SDS_P1;SDS_P2;PMS_P1;PMS_P2;Temp;Humidity;BMP_temperature;BMP_pressure;BME280_temperature;BME280_humidity;BME280_pressure;Samples;Min_cycle;Max_cycle;Signal;HPM_P1;HPM_P2
2023/10/04 00:00:20;;;;;;;2.63;2.40;;;20.50;68.40;21.10;101706.00;;;;5010547;28;20186;-53
2023/10/04 00:02:50;;;;;;;3.10;2.70;;;20.50;68.30;21.10;101692.00;;;;5008082;28;20282;-53
2023/10/04 00:05:17;;;;;;;2.70;2.50;;;20.50;68.30;21.10;101698.00;;;;5007965;28;20186;-53
2023/10/04 00:07:44;;;;;;;3.00;2.70;;;20.50;68.20;21.10;101701.00;;;;5009004;28;20206;-53
2023/10/04 00:10:11;;;;;;;2.73;2.43;;;20.50;68.20;21.10;101708.00;;;;5009127;28;20182;-54
2023/10/04 00:12:37;;;;;;;3.00;2.70;;;20.50;68.20;21.10;101715.00;;;;5007604;28;20602;-53
2023/10/04 00:15:09;;;;;;;3.30;2.80;;;20.40;68.10;21.10;101718.00;;;;5008960;28;20176;-53
2023/10/04 00:17:41;;;;;;;3.90;2.70;;;20.40;68.20;21.10;101725.00;;;;5008924;28;20191;-53
2023/10/04 00:20:13;;;;;;;2.80;2.60;;;20.50;68.10;21.10;101729.00;;;;5009080;28;20210;-54
2023/10/04 00:22:40;;;;;;;2.90;2.70;;;20.50;68.10;21.10;101727.00;;;;5009644;28;20657;-54
2023/10/04 00:25:09;;;;;;;3.00;2.50;;;20.50;67.90;21.10;101720.00;;;;5015419;28;20252;-54
2023/10/04 00:27:35;;;;;;;3.23;2.73;;;20.50;68.00;21.10;101728.00;;;;5011539;28;20262;-59
2023/10/04 00:30:01;;;;;;;3.40;2.87;;;20.40;67.80;21.10;101733.00;;;;5009523;28;20216;-53
2023/10/04 00:32:27;;;;;;;2.83;2.53;;;20.40;67.90;21.00;101733.00;;;;5009207;28;20206;-54
2023/10/04 00:34:54;;;;;;;2.77;2.47;;;20.40;68.00;21.00;101729.00;;;;5009434;28;20211;-54
2023/10/04 00:37:20;;;;;;;3.90;2.73;;;20.40;68.00;21.00;101727.00;;;;5011795;28;20262;-53
2023/10/04 00:39:45;;;;;;;3.27;2.97;;;20.40;68.00;21.00;101736.00;;;;5011453;28;20265;-53
2023/10/04 00:42:12;;;;;;;2.97;2.67;;;20.40;67.80;21.00;101744.00;;;;5008782;28;20201;-54
2023/10/04 00:44:38;;;;;;;3.77;2.87;;;20.40;68.00;21.00;101749.00;;;;5008627;28;20218;-54
2023/10/04 00:47:05;;;;;;;3.13;2.60;;;20.30;68.00;21.00;101745.00;;;;5008576;28;20210;-54
2023/10/04 00:49:33;;;;;;;3.27;2.63;;;20.30;68.00;21.00;101746.00;;;;5008740;28;20211;-54
2023/10/04 00:52:00;;;;;;;3.20;2.90;;;20.30;67.90;21.00;101745.00;;;;5007390;28;20195;-54
2023/10/04 00:54:26;;;;;;;2.80;2.60;;;20.30;67.80;21.00;101751.00;;;;4975063;28;20211;-54
2023/10/04 00:56:52;;;;;;;3.20;2.80;;;20.30;67.80;20.90;101756.00;;;;5007546;28;20685;-54
2023/10/04 00:59:17;;;;;;;2.60;2.40;;;20.30;67.80;20.90;101748.00;;;;5007416;28;20195;-55
2023/10/04 01:01:43;;;;;;;2.93;2.63;;;20.30;67.80;20.90;101755.00;;;;5007201;28;20291;-55
2023/10/04 01:04:10;;;;;;;2.73;2.43;;;20.30;67.70;20.90;101752.00;;;;5008573;28;20681;-54
2023/10/04 01:06:37;;;;;;;3.07;2.53;;;20.30;67.80;20.90;101754.00;;;;4990508;28;20207;-54
2023/10/04 01:09:05;;;;;;;2.97;2.67;;;20.20;67.60;20.90;101752.00;;;;5008756;28;20183;-55
2023/10/04 01:11:35;;;;;;;3.30;2.63;;;20.30;67.80;20.90;101765.00;;;;5012011;28;20184;-54
2023/10/04 01:14:18;;;;;;;2.60;2.40;;;20.30;67.70;20.90;101768.00;;;;5011371;28;20244;-55
2023/10/04 01:16:45;;;;;;;3.00;2.50;;;20.20;67.60;20.90;101768.00;;;;5008411;28;20189;-54
2023/10/04 01:19:15;;;;;;;2.63;2.30;;;20.20;67.60;20.80;101767.00;;;;5008246;28;20199;-53
2023/10/04 01:21:41;;;;;;;3.13;2.67;;;20.20;67.80;20.80;101773.00;;;;5008409;28;20244;-53
2023/10/04 01:24:10;;;;;;;2.50;2.30;;;20.20;67.80;20.80;101771.00;;;;5008303;28;20285;-53
2023/10/04 01:26:37;;;;;;;2.50;2.30;;;20.20;67.90;20.80;101766.00;;;;5008117;28;20209;-53
2023/10/04 01:29:08;;;;;;;3.20;2.40;;;20.10;67.90;20.80;101766.00;;;;5008157;28;20221;-53
2023/10/04 01:31:35;;;;;;;2.63;2.43;;;20.10;67.90;20.80;101772.00;;;;5007050;28;20557;-54
2023/10/04 01:34:02;;;;;;;2.70;2.47;;;20.10;67.90;20.80;101772.00;;;;5008324;28;20633;-54
2023/10/04 01:36:31;;;;;;;2.87;2.57;;;20.10;67.90;20.80;101780.00;;;;5008282;28;20198;-54
2023/10/04 01:38:57;;;;;;;2.87;2.30;;;20.10;67.90;20.80;101781.00;;;;5007893;28;20197;-54
2023/10/04 01:41:24;;;;;;;2.77;2.30;;;20.10;67.80;20.70;101780.00;;;;5007870;28;20641;-54
2023/10/04 01:43:53;;;;;;;3.00;2.43;;;20.10;67.80;20.70;101773.00;;;;5007947;28;20748;-54
2023/10/04 01:46:19;;;;;;;2.50;2.30;;;20.10;67.80;20.70;101772.00;;;;5008246;28;20213;-53
2023/10/04 01:48:44;;;;;;;2.73;2.30;;;20.10;67.80;20.70;101764.00;;;;5007744;28;20187;-54
2023/10/04 01:51:12;;;;;;;2.77;2.27;;;20.10;67.80;20.70;101770.00;;;;5007988;28;20267;-53
2023/10/04 01:53:38;;;;;;;2.40;2.20;;;20.10;67.80;20.70;101763.00;;;;5006519;28;20555;-54
2023/10/04 01:56:04;;;;;;;2.93;2.50;;;20.10;67.80;20.70;101769.00;;;;5008023;28;20237;-53
2023/10/04 01:58:31;;;;;;;2.73;2.30;;;20.00;67.60;20.70;101774.00;;;;5007992;28;20676;-54
2023/10/04 02:00:57;;;;;;;3.17;2.50;;;20.00;67.60;20.70;101768.00;;;;5008152;28;20211;-54
2023/10/04 02:03:23;;;;;;;2.60;2.30;;;20.00;67.60;20.70;101770.00;;;;5008104;28;20261;-56
2023/10/04 02:05:50;;;;;;;2.93;2.40;;;20.00;67.60;20.60;101776.00;;;;5006702;28;20210;-54
2023/10/04 02:08:16;;;;;;;3.00;2.30;;;20.00;67.60;20.60;101773.00;;;;5005355;28;20191;-54
2023/10/04 02:10:41;;;;;;;2.60;2.40;;;20.00;67.60;20.60;101767.00;;;;5009309;28;20251;-54
2023/10/04 02:13:09;;;;;;;2.47;2.20;;;20.00;67.60;20.60;101765.00;;;;5011206;28;20195;-54
2023/10/04 02:15:35;;;;;;;2.50;2.30;;;20.00;67.60;20.60;101781.00;;;;5009960;28;20176;-54
2023/10/04 02:18:01;;;;;;;2.60;2.40;;;20.00;67.50;20.60;101776.00;;;;5002889;28;20205;-54
2023/10/04 02:20:31;;;;;;;2.93;2.50;;;20.00;67.60;20.60;101774.00;;;;5020172;28;20179;-55
2023/10/04 02:22:57;;;;;;;3.17;2.50;;;20.00;67.60;20.60;101771.00;;;;5012780;28;20238;-54
2023/10/04 02:25:24;;;;;;;2.33;2.10;;;19.90;67.60;20.60;101771.00;;;;5011759;28;20195;-53
2023/10/04 02:27:52;;;;;;;3.43;2.30;;;19.90;67.50;20.60;101768.00;;;;5010190;28;20603;-53
2023/10/04 02:30:26;;;;;;;2.50;2.17;;;19.90;67.60;20.60;101765.00;;;;5011690;28;20239;-57
2023/10/04 02:32:52;;;;;;;2.90;2.40;;;19.90;67.60;20.50;101769.00;;;;5011408;28;20217;-54
2023/10/04 02:35:26;;;;;;;2.60;2.40;;;19.90;67.60;20.50;101774.00;;;;5017065;28;20200;-53
2023/10/04 02:37:55;;;;;;;2.60;2.20;;;19.90;67.60;20.50;101766.00;;;;5011429;28;20188;-52
2023/10/04 02:40:27;;;;;;;2.80;2.50;;;19.90;67.60;20.50;101775.00;;;;5011266;28;20198;-53
2023/10/04 02:42:57;;;;;;;2.40;2.20;;;19.90;67.70;20.50;101769.00;;;;5010944;28;20613;-54
2023/10/04 02:45:24;;;;;;;3.83;2.47;;;19.90;67.70;20.50;101770.00;;;;5010853;28;20180;-54
2023/10/04 02:47:51;;;;;;;2.53;2.30;;;19.90;67.70;20.50;101766.00;;;;5009180;28;20222;-53
2023/10/04 02:50:17;;;;;;;2.67;2.30;;;19.90;67.70;20.50;101777.00;;;;5009213;28;20622;-53
2023/10/04 02:52:44;;;;;;;2.40;2.20;;;19.80;67.70;20.50;101768.00;;;;5010804;28;20199;-53
2023/10/04 02:55:17;;;;;;;2.73;2.30;;;19.80;67.70;20.50;101764.00;;;;5010661;28;20211;-54
2023/10/04 02:57:45;;;;;;;2.60;2.10;;;19.80;67.80;20.40;101764.00;;;;5010729;28;20290;-54
2023/10/04 03:00:16;;;;;;;2.93;2.10;;;19.80;67.80;20.40;101762.00;;;;5010460;28;20218;-54
2023/10/04 03:02:44;;;;;;;2.37;2.17;;;19.80;67.80;20.40;101759.00;;;;5011699;28;20294;-53
2023/10/04 03:05:11;;;;;;;2.73;2.30;;;19.80;67.70;20.10;101758.00;;;;5012016;28;20224;-54
2023/10/04 03:07:37;;;;;;;2.80;2.30;;;19.80;67.70;20.40;101768.00;;;;5011377;28;20199;-53
2023/10/04 03:10:04;;;;;;;3.23;2.27;;;19.80;67.60;20.40;101765.00;;;;5011656;28;20681;-54
2023/10/04 03:12:30;;;;;;;2.27;2.00;;;19.80;67.70;20.40;101770.00;;;;5011658;28;20167;-53
2023/10/04 03:14:56;;;;;;;2.30;2.10;;;19.80;67.60;20.40;101769.00;;;;5011743;28;20168;-54
2023/10/04 03:17:22;;;;;;;2.67;2.30;;;19.80;67.70;20.40;101769.00;;;;5011468;28;20313;-54
2023/10/04 03:19:47;;;;;;;2.73;2.10;;;19.80;67.70;20.40;101760.00;;;;5010995;28;20629;-54
2023/10/04 03:22:19;;;;;;;2.67;2.30;;;19.80;67.60;20.40;101763.00;;;;5010305;28;20197;-54
2023/10/04 03:24:45;;;;;;;2.40;2.20;;;19.70;67.60;20.40;101769.00;;;;5011212;28;20203;-53
2023/10/04 03:27:12;;;;;;;3.47;2.10;;;19.80;67.70;20.40;101772.00;;;;5010805;28;20313;-54
2023/10/04 03:29:39;;;;;;;2.90;2.10;;;19.70;67.60;20.30;101757.00;;;;5010851;28;20175;-54
2023/10/04 03:32:05;;;;;;;2.47;2.10;;;19.70;67.60;20.30;101753.00;;;;5010822;28;20185;-53
2023/10/04 03:34:31;;;;;;;3.00;2.20;;;19.70;67.60;20.30;101765.00;;;;5011369;28;20728;-53
2023/10/04 03:37:08;;;;;;;2.30;2.10;;;19.70;67.60;20.30;101762.00;;;;5008207;28;20203;-53
2023/10/04 03:39:35;;;;;;;3.70;2.13;;;19.70;67.70;20.30;101763.00;;;;5009286;28;20178;-53
2023/10/04 03:42:01;;;;;;;3.13;2.30;;;19.70;67.80;20.30;101774.00;;;;5008952;28;20198;-52
2023/10/04 03:44:27;;;;;;;7.53;2.57;;;19.70;68.10;20.30;101770.00;;;;5009109;28;20198;-53
2023/10/04 03:46:56;;;;;;;4.67;2.20;;;19.70;67.80;20.30;101768.00;;;;5009984;28;20262;-53
2023/10/04 03:49:24;;;;;;;3.97;2.30;;;19.70;67.70;20.30;101775.00;;;;5010741;28;20188;-54
2023/10/04 03:51:50;;;;;;;5.33;2.20;;;19.70;67.80;20.30;101775.00;;;;5011171;28;20248;-54
2023/10/04 03:54:15;;;;;;;3.77;2.23;;;19.70;67.80;20.20;101759.00;;;;5010810;28;20616;-54
2023/10/04 03:56:41;;;;;;;2.63;2.20;;;19.70;67.90;20.30;101797.00;;;;5009489;28;20207;-55
2023/10/04 03:59:10;;;;;;;4.60;2.27;;;19.60;67.70;20.30;101794.00;;;;5010784;28;20206;-54
2023/10/04 04:01:37;;;;;;;5.60;2.60;;;19.60;67.70;20.30;101796.00;;;;5010334;28;20209;-54
2023/10/04 04:04:14;;;;;;;3.63;2.30;;;19.60;67.80;20.30;101798.00;;;;5010424;28;20596;-54
2023/10/04 04:06:40;;;;;;;3.40;2.40;;;19.60;67.80;20.30;101799.00;;;;5010092;28;20191;-54
2023/10/04 04:09:09;;;;;;;2.60;2.30;;;19.60;67.80;20.20;101790.00;;;;5009316;28;20191;-53
2023/10/04 04:11:36;;;;;;;3.23;2.40;;;19.60;67.80;20.20;101794.00;;;;5010453;28;20171;-54
2023/10/04 04:14:04;;;;;;;3.07;2.30;;;19.60;67.80;20.30;101800.00;;;;5010389;28;20702;-53
2023/10/04 04:16:30;;;;;;;3.17;2.40;;;19.60;67.80;20.20;101797.00;;;;5017647;28;20198;-53
2023/10/04 04:18:56;;;;;;;3.17;2.17;;;19.60;67.80;20.20;101768.00;;;;5010876;28;20197;-54
2023/10/04 04:21:21;;;;;;;5.43;2.67;;;19.60;68.00;20.20;101785.00;;;;5008996;28;20195;-60
2023/10/04 04:23:47;;;;;;;3.63;2.30;;;19.60;68.10;20.20;101781.00;;;;5010313;28;20251;-55
2023/10/04 04:26:13;;;;;;;2.97;2.40;;;19.60;68.20;20.20;101785.00;;;;5010230;28;20252;-54
2023/10/04 04:28:39;;;;;;;4.10;2.40;;;19.60;68.30;20.20;101786.00;;;;5012215;28;20189;-59
2023/10/04 04:31:14;;;;;;;3.90;2.10;;;19.60;68.30;20.20;101781.00;;;;5016061;28;20179;-53
2023/10/04 04:33:41;;;;;;;5.60;2.43;;;19.60;68.40;20.20;101785.00;;;;5009717;28;20203;-54
2023/10/04 04:36:17;;;;;;;6.73;2.83;;;19.60;68.40;20.20;101788.00;;;;5010120;28;20670;-53
2023/10/04 04:38:44;;;;;;;3.90;2.30;;;19.50;68.40;20.20;101796.00;;;;5009837;28;20185;-54
2023/10/04 04:41:13;;;;;;;3.97;2.57;;;19.60;68.40;20.20;101803.00;;;;5008743;28;20654;-54
2023/10/04 04:43:39;;;;;;;7.67;2.80;;;19.50;68.40;20.20;101786.00;;;;5009566;28;20699;-53
2023/10/04 04:46:12;;;;;;;5.30;2.50;;;19.50;68.40;20.20;101793.00;;;;5009230;28;20206;-53
2023/10/04 04:48:38;;;;;;;7.20;2.90;;;19.50;68.40;20.10;101683.00;;;;5009287;28;20190;-53
2023/10/04 04:51:11;;;;;;;5.53;2.60;;;19.50;69.20;20.10;101796.00;;;;5010098;28;20266;-53
2023/10/04 04:53:43;;;;;;;5.40;2.60;;;19.50;68.40;20.10;101797.00;;;;4995743;28;20698;-53
2023/10/04 04:56:12;;;;;;;8.00;3.00;;;19.50;68.50;20.10;101809.00;;;;5009223;28;20184;-54
2023/10/04 04:58:39;;;;;;;6.90;3.10;;;19.50;68.70;20.20;101810.00;;;;5009080;28;20174;-53
2023/10/04 05:01:08;;;;;;;8.37;2.87;;;19.50;68.70;20.10;101795.00;;;;5009046;28;20179;-53
2023/10/04 05:03:34;;;;;;;10.87;3.00;;;19.50;68.70;20.10;101797.00;;;;5009520;28;20203;-54
2023/10/04 05:06:01;;;;;;;5.97;2.50;;;19.50;68.70;20.10;101796.00;;;;5007961;28;20222;-54
2023/10/04 05:08:27;;;;;;;6.30;2.63;;;19.50;68.70;20.10;101784.00;;;;5007313;28;20182;-53
2023/10/04 05:10:55;;;;;;;4.80;2.40;;;19.40;68.50;20.10;101789.00;;;;5009001;28;20184;-54
2023/10/04 05:13:21;;;;;;;4.67;2.53;;;19.50;68.70;20.10;101790.00;;;;5009288;28;20255;-53
2023/10/04 05:15:49;;;;;;;4.57;2.67;;;19.40;68.60;20.10;101779.00;;;;5009142;28;20279;-53
2023/10/04 05:18:16;;;;;;;5.83;2.60;;;19.40;69.40;20.10;101792.00;;;;5008676;28;20194;-53
2023/10/04 05:21:05;;;;;;;4.63;2.73;;;19.40;68.60;20.10;101793.00;;;;5008791;28;20283;-54
2023/10/04 05:23:31;;;;;;;3.63;2.30;;;19.40;68.60;20.10;101794.00;;;;5007908;28;20203;-54
2023/10/04 05:25:57;;;;;;;3.70;2.40;;;19.40;68.60;20.10;101805.00;;;;5008641;28;20298;-53
2023/10/04 05:28:23;;;;;;;4.30;2.40;;;19.40;68.70;20.10;101797.00;;;;5007538;28;20272;-54
2023/10/04 05:30:51;;;;;;;4.30;2.43;;;19.40;68.60;20.10;101788.00;;;;5008656;28;20179;-53
2023/10/04 05:33:18;;;;;;;4.00;2.07;;;19.30;68.50;20.00;101806.00;;;;4991340;28;20288;-53
2023/10/04 05:35:45;;;;;;;4.70;2.50;;;19.30;68.60;20.00;101789.00;;;;5008788;28;20201;-54
2023/10/04 05:38:17;;;;;;;3.33;2.43;;;19.40;68.70;20.00;101788.00;;;;5007210;28;20183;-54
2023/10/04 05:40:43;;;;;;;3.63;2.40;;;19.40;68.60;20.00;101797.00;;;;5008611;28;20186;-54
2023/10/04 05:43:10;;;;;;;2.97;2.30;;;19.30;68.50;20.00;101773.00;;;;5008832;28;20223;-53
2023/10/04 05:45:42;;;;;;;3.27;2.10;;;19.30;68.60;20.00;101793.00;;;;5009171;28;20200;-53
2023/10/04 05:48:09;;;;;;;2.70;2.10;;;19.30;68.60;20.00;101810.00;;;;5012297;28;20279;-54
2023/10/04 05:50:35;;;;;;;4.47;2.57;;;19.30;68.50;20.00;101802.00;;;;5012621;28;20213;-53
2023/10/04 05:53:05;;;;;;;3.57;2.57;;;19.30;68.60;20.00;101808.00;;;;5012479;28;20242;-53
2023/10/04 05:55:32;;;;;;;3.37;2.40;;;19.30;68.60;20.00;101806.00;;;;5012811;28;20194;-53
2023/10/04 05:57:57;;;;;;;3.53;2.33;;;19.30;68.50;19.90;101800.00;;;;5012155;28;20260;-53
2023/10/04 06:00:51;;;;;;;4.00;2.60;;;19.30;68.60;19.90;101806.00;;;;5010528;28;20175;-53
2023/10/04 06:03:13;;;;;;;3.40;2.40;;;19.30;68.60;19.90;101809.00;;;;5011175;28;20278;-54
2023/10/04 06:05:40;;;;;;;4.00;2.50;;;19.30;68.70;19.90;101820.00;;;;5012237;28;20183;-53
2023/10/04 06:08:15;;;;;;;4.50;2.33;;;19.30;68.60;19.90;101832.00;;;;5011557;28;20268;-54
2023/10/04 06:10:42;;;;;;;3.60;2.50;;;19.30;68.60;19.90;101816.00;;;;5012515;28;20179;-54
2023/10/04 06:13:11;;;;;;;4.00;2.60;;;19.20;68.50;19.90;101812.00;;;;5017481;28;20295;-54
2023/10/04 06:15:40;;;;;;;2.77;2.23;;;19.20;69.30;19.90;101831.00;;;;5011528;28;20174;-54
2023/10/04 06:18:07;;;;;;;3.87;2.50;;;19.20;68.50;19.90;101834.00;;;;5011800;28;20620;-53
2023/10/04 06:20:33;;;;;;;3.17;2.57;;;19.30;68.60;19.90;101840.00;;;;5012223;28;20223;-54
2023/10/04 06:23:07;;;;;;;4.17;2.50;;;19.20;68.40;19.90;101864.00;;;;5010119;28;20672;-54
2023/10/04 06:25:34;;;;;;;3.30;2.43;;;19.20;68.50;19.90;101862.00;;;;5014094;28;20188;-54
2023/10/04 06:28:04;;;;;;;2.97;2.20;;;19.20;68.50;19.80;101859.00;;;;5013989;28;20220;-53
2023/10/04 06:30:32;;;;;;;2.90;2.13;;;19.20;68.50;19.80;101859.00;;;;5011631;28;20180;-54
2023/10/04 06:32:59;;;;;;;6.27;2.70;;;19.20;68.60;19.80;101865.00;;;;5011390;28;20200;-54
2023/10/04 06:35:26;;;;;;;3.87;2.30;;;19.20;68.50;19.90;101862.00;;;;5010527;28;20180;-54
2023/10/04 06:37:56;;;;;;;5.40;2.27;;;19.20;68.60;19.90;101861.00;;;;5010199;28;20887;-54
2023/10/04 06:40:23;;;;;;;4.20;2.23;;;19.20;68.50;19.90;101852.00;;;;5010527;28;20190;-54
2023/10/04 06:42:51;;;;;;;3.50;2.43;;;19.20;68.60;19.80;101845.00;;;;5010149;28;20202;-53
2023/10/04 06:45:17;;;;;;;3.30;2.53;;;19.20;68.50;19.80;101855.00;;;;5011894;28;20211;-54
2023/10/04 06:47:45;;;;;;;4.60;2.63;;;19.20;68.70;19.80;101869.00;;;;5011222;28;20238;-54
2023/10/04 06:50:22;;;;;;;6.77;2.77;;;19.20;68.90;19.80;101877.00;;;;5006995;28;20241;-54
2023/10/04 06:52:49;;;;;;;7.33;2.60;;;19.20;68.90;19.80;101883.00;;;;5008653;28;20224;-54
2023/10/04 06:55:16;;;;;;;6.33;2.37;;;19.20;69.00;19.80;101894.00;;;;4994041;28;20179;-55
2023/10/04 06:57:43;;;;;;;4.03;2.43;;;19.20;68.90;19.80;101899.00;;;;5010562;28;20181;-54
2023/10/04 07:00:14;;;;;;;6.57;2.60;;;19.20;68.90;19.80;101907.00;;;;5011519;28;20187;-54
2023/10/04 07:02:54;;;;;;;5.73;2.80;;;19.20;69.00;19.80;101900.00;;;;5011339;28;20207;-56
2023/10/04 07:05:26;;;;;;;4.93;2.73;;;19.20;69.20;19.80;101901.00;;;;5011354;28;20662;-53
2023/10/04 07:07:53;;;;;;;7.73;2.87;;;19.20;69.20;19.80;101884.00;;;;4993896;28;20211;-53
2023/10/04 07:10:21;;;;;;;7.67;2.67;;;19.20;69.20;19.80;101900.00;;;;5010881;28;20187;-53
2023/10/04 07:12:47;;;;;;;4.00;2.40;;;19.10;69.30;19.80;101903.00;;;;5010790;28;20300;-54
2023/10/04 07:15:13;;;;;;;8.13;2.67;;;19.10;69.20;19.80;101915.00;;;;5011129;28;20591;-54
2023/10/04 07:17:40;;;;;;;4.60;2.43;;;19.10;69.70;19.80;101918.00;;;;5010913;28;20342;-54
2023/10/04 07:20:19;;;;;;;6.30;2.47;;;19.10;69.40;19.80;101917.00;;;;5010892;28;20198;-54
2023/10/04 07:22:58;;;;;;;6.73;2.53;;;19.10;69.40;19.80;101920.00;;;;5010549;28;20291;-53
2023/10/04 07:25:27;;;;;;;6.27;2.53;;;19.10;69.40;19.80;101927.00;;;;5010995;28;20612;-54
2023/10/04 07:27:53;;;;;;;8.47;2.80;;;19.10;69.50;19.80;101918.00;;;;5009956;28;20255;-55
2023/10/04 07:30:19;;;;;;;7.73;2.80;;;19.10;69.60;19.80;101923.00;;;;5010897;28;20242;-54
2023/10/04 07:32:46;;;;;;;6.57;2.80;;;19.10;69.60;19.80;101924.00;;;;5010377;28;20208;-54
2023/10/04 07:35:16;;;;;;;9.87;2.70;;;19.00;69.90;19.80;101928.00;;;;5010060;28;20724;-54
2023/10/04 07:37:42;;;;;;;6.37;3.10;;;19.10;69.60;19.70;101936.00;;;;5006196;28;20262;-55
2023/10/04 07:40:09;;;;;;;8.30;3.00;;;19.10;69.60;19.70;101936.00;;;;5009780;28;20550;-54
2023/10/04 07:42:38;;;;;;;8.17;2.80;;;19.10;69.60;19.70;101929.00;;;;5009339;28;20710;-54
2023/10/04 07:45:05;;;;;;;5.50;2.70;;;19.00;69.40;19.70;101944.00;;;;5010989;28;20183;-54
2023/10/04 07:47:31;;;;;;;5.97;2.50;;;19.00;69.40;19.70;101936.00;;;;5010806;28;20286;-55
2023/10/04 07:49:57;;;;;;;6.30;2.67;;;19.00;69.40;19.70;101938.00;;;;5010853;28;20187;-55
2023/10/04 07:52:22;;;;;;;5.83;2.53;;;19.00;69.40;19.70;101945.00;;;;5011169;28;20259;-55
2023/10/04 07:54:50;;;;;;;4.20;2.40;;;19.00;69.40;19.70;101957.00;;;;5010670;28;20195;-54
2023/10/04 07:57:16;;;;;;;6.13;2.60;;;19.00;69.40;19.70;101949.00;;;;5010794;28;20681;-54
2023/10/04 07:59:43;;;;;;;4.33;2.60;;;19.00;69.40;19.70;101945.00;;;;5010014;28;20178;-54
2023/10/04 08:02:11;;;;;;;4.53;2.60;;;19.00;69.40;19.70;101950.00;;;;5010606;28;20259;-54
2023/10/04 08:04:36;;;;;;;4.80;2.73;;;19.00;69.30;19.70;101941.00;;;;5010675;28;20239;-54
2023/10/04 08:07:02;;;;;;;4.40;2.53;;;19.00;69.40;19.70;101952.00;;;;5011608;28;20806;-55
2023/10/04 08:09:28;;;;;;;3.83;2.60;;;19.00;69.40;19.70;101946.00;;;;5018126;28;20218;-55
2023/10/04 08:11:53;;;;;;;5.33;2.60;;;18.90;69.40;19.70;101943.00;;;;5010468;28;20682;-55
2023/10/04 08:14:21;;;;;;;4.13;2.50;;;19.00;69.60;19.70;101945.00;;;;5010203;28;20227;-55
2023/10/04 08:16:49;;;;;;;4.10;2.27;;;19.00;69.70;19.70;101945.00;;;;5010381;28;20689;-55
2023/10/04 08:19:15;;;;;;;5.23;2.60;;;18.90;69.60;19.70;101936.00;;;;5009201;28;20214;-54
2023/10/04 08:21:41;;;;;;;4.43;2.50;;;18.90;69.60;19.70;101938.00;;;;5012350;28;20183;-59
2023/10/04 08:24:07;;;;;;;6.70;2.80;;;19.00;69.80;19.60;101928.00;;;;5019273;28;20208;-54
2023/10/04 08:26:33;;;;;;;6.50;2.50;;;18.90;69.70;19.60;101930.00;;;;5010750;28;20206;-55
2023/10/04 08:28:59;;;;;;;4.63;2.50;;;18.90;69.60;19.60;101936.00;;;;5009789;28;20175;-53
2023/10/04 08:31:25;;;;;;;4.40;2.40;;;18.90;69.60;19.60;101942.00;;;;5010277;28;20199;-54
2023/10/04 08:33:51;;;;;;;4.27;2.40;;;18.90;69.70;19.60;101930.00;;;;5009774;28;20215;-54
2023/10/04 08:36:17;;;;;;;4.00;2.20;;;18.90;69.70;19.60;101920.00;;;;5010089;28;20253;-54
2023/10/04 08:38:46;;;;;;;4.83;2.50;;;18.90;69.70;19.60;101922.00;;;;5008337;28;20797;-54
2023/10/04 08:41:12;;;;;;;3.90;2.50;;;18.90;69.80;19.60;101931.00;;;;5011473;28;20180;-54
2023/10/04 08:43:38;;;;;;;4.87;2.30;;;18.90;69.80;19.60;101931.00;;;;5012410;28;20201;-54
2023/10/04 08:46:07;;;;;;;4.50;2.40;;;18.90;69.80;19.60;101944.00;;;;5011071;28;20603;-54
2023/10/04 08:48:33;;;;;;;3.27;2.40;;;18.90;69.90;19.60;101940.00;;;;5009830;28;20237;-55
2023/10/04 08:51:23;;;;;;;3.73;2.50;;;18.90;70.00;19.60;101944.00;;;;5009870;28;20654;-55
2023/10/04 08:54:13;;;;;;;4.20;2.47;;;18.90;70.00;19.60;101949.00;;;;5009737;28;20203;-55
2023/10/04 08:57:20;;;;;;;2.93;2.30;;;18.90;70.10;19.60;101950.00;;;;5008940;28;20187;-55
2023/10/04 08:59:49;;;;;;;3.97;2.40;;;18.90;70.10;19.60;101952.00;;;;5007857;28;20191;-54
2023/10/04 09:02:14;;;;;;;4.23;2.30;;;18.90;70.10;19.60;101954.00;;;;5009973;28;20183;-54
2023/10/04 09:04:41;;;;;;;3.03;2.20;;;18.90;70.10;19.60;101957.00;;;;5009417;28;20668;-53
2023/10/04 09:07:08;;;;;;;3.20;2.30;;;18.90;70.20;19.60;101961.00;;;;5009612;28;20206;-54
2023/10/04 09:09:35;;;;;;;4.17;2.40;;;18.90;70.20;19.60;101951.00;;;;5009300;28;20253;-54
2023/10/04 09:12:01;;;;;;;3.83;2.50;;;18.90;70.30;19.60;101949.00;;;;5000485;28;20179;-54
2023/10/04 09:14:27;;;;;;;3.20;2.30;;;18.90;70.30;19.60;101960.00;;;;5009190;28;20199;-55
2023/10/04 09:17:13;;;;;;;2.73;2.20;;;18.90;70.30;19.60;101953.00;;;;5009480;28;20183;-54
2023/10/04 09:19:42;;;;;;;3.30;2.27;;;18.90;70.30;19.60;101955.00;;;;5009110;28;20253;-54
2023/10/04 09:22:09;;;;;;;2.83;2.20;;;18.90;70.30;19.60;101959.00;;;;4980380;28;20190;-54
2023/10/04 09:24:53;;;;;;;2.57;2.10;;;18.90;70.30;19.60;101949.00;;;;5013479;28;20203;-55
2023/10/04 09:27:21;;;;;;;2.83;2.33;;;18.90;70.30;19.60;101955.00;;;;5013484;28;20582;-54
2023/10/04 09:29:47;;;;;;;3.60;2.30;;;18.90;70.40;19.60;101949.00;;;;5013147;28;20322;-53
2023/10/04 09:32:13;;;;;;;3.90;2.60;;;18.90;70.40;19.60;101945.00;;;;5012438;28;20176;-55
2023/10/04 09:34:39;;;;;;;2.47;2.13;;;18.90;70.50;19.60;101952.00;;;;5013288;28;20218;-55
2023/10/04 09:37:21;;;;;;;2.67;2.30;;;18.90;70.60;19.60;101952.00;;;;5013354;28;20226;-54
2023/10/04 09:39:47;;;;;;;2.73;2.40;;;18.90;70.50;19.60;101924.00;;;;5013167;28;20184;-54
2023/10/04 09:42:14;;;;;;;3.10;2.30;;;18.90;70.60;19.60;101931.00;;;;5012373;28;20687;-54
2023/10/04 09:44:40;;;;;;;2.87;2.27;;;18.90;70.60;19.60;101934.00;;;;5013062;28;20202;-54
2023/10/04 09:47:07;;;;;;;4.00;2.43;;;18.90;70.60;19.60;101934.00;;;;5011828;28;20223;-54
2023/10/04 09:49:35;;;;;;;2.87;2.10;;;18.80;70.50;19.60;101947.00;;;;5012986;28;20184;-55
2023/10/04 09:52:05;;;;;;;2.80;2.10;;;18.90;70.70;19.60;101947.00;;;;5012748;28;20675;-54
2023/10/04 09:54:31;;;;;;;3.03;2.40;;;18.90;70.70;19.70;101935.00;;;;5013128;28;20194;-55
2023/10/04 09:56:59;;;;;;;3.17;2.30;;;18.90;70.80;19.70;101945.00;;;;5013001;28;21600;-54
2023/10/04 09:59:26;;;;;;;4.03;2.20;;;18.90;70.90;19.70;101946.00;;;;5011643;28;20254;-54
2023/10/04 10:01:54;;;;;;;3.73;2.20;;;18.90;70.90;19.70;101959.00;;;;5012767;28;20175;-54
2023/10/04 10:04:43;;;;;;;3.23;2.30;;;18.90;70.90;19.70;101949.00;;;;5005169;28;20664;-55
2023/10/04 10:07:22;;;;;;;3.07;2.10;;;18.90;70.90;19.70;101946.00;;;;5018875;28;20220;-54
2023/10/04 10:10:05;;;;;;;3.33;2.33;;;18.90;70.90;19.70;101924.00;;;;5014256;28;20168;-54
2023/10/04 10:12:34;;;;;;;5.80;2.40;;;18.90;70.90;19.70;101948.00;;;;5021445;28;20527;-55
2023/10/04 10:15:07;;;;;;;3.30;2.40;;;18.90;71.10;19.70;101934.00;;;;5011145;28;20651;-56
2023/10/04 10:17:34;;;;;;;3.90;2.40;;;19.00;71.30;19.70;101940.00;;;;5012472;28;20176;-58
2023/10/04 10:20:00;;;;;;;4.13;2.40;;;19.00;71.10;19.70;101930.00;;;;5018252;28;20218;-54
2023/10/04 10:22:26;;;;;;;7.57;2.60;;;19.00;71.20;19.70;101938.00;;;;5016056;28;20181;-54
2023/10/04 10:24:55;;;;;;;7.30;2.77;;;19.00;71.30;19.80;101937.00;;;;5007177;28;20599;-54
2023/10/04 10:27:22;;;;;;;5.10;2.63;;;19.00;71.40;19.80;101932.00;;;;5012205;28;20210;-54
2023/10/04 10:29:48;;;;;;;6.63;2.77;;;19.00;71.20;19.80;101930.00;;;;5011642;28;20280;-54
2023/10/04 10:32:17;;;;;;;8.33;2.67;;;19.00;71.40;19.80;101922.00;;;;4994028;28;20708;-54
2023/10/04 10:34:43;;;;;;;5.70;2.77;;;19.00;71.30;19.80;101928.00;;;;5011160;28;20199;-54
2023/10/04 10:37:22;;;;;;;7.03;2.70;;;19.00;71.40;19.80;101921.00;;;;5011506;28;20179;-55
2023/10/04 10:40:02;;;;;;;7.90;2.80;;;19.00;71.40;19.80;101905.00;;;;5010197;28;20655;-54
2023/10/04 10:42:27;;;;;;;5.90;2.80;;;19.00;71.40;19.80;101912.00;;;;5011601;28;20184;-54
2023/10/04 10:45:26;;;;;;;7.53;2.50;;;19.10;71.40;19.90;101914.00;;;;5011090;28;20671;-55
2023/10/04 10:47:56;;;;;;;6.50;2.70;;;19.10;71.40;19.80;101903.00;;;;5011512;28;20259;-55
2023/10/04 10:50:40;;;;;;;6.40;2.50;;;19.10;71.50;19.90;101903.00;;;;5011465;28;20576;-55
2023/10/04 10:53:09;;;;;;;6.23;2.80;;;19.10;71.60;19.90;101899.00;;;;5011564;28;20195;-55